createdAt,value
2019-05-21T00:02:25.004Z,30.12
2019-05-21T00:04:55.319Z,28.73
2019-05-21T00:07:25.950Z,29.18
2019-05-21T00:09:56.376Z,31.02
2019-05-21T00:12:26.662Z,29.23
2019-05-21T00:14:56.914Z,29.37
2019-05-21T00:17:27.122Z,29.25
2019-05-21T00:19:57.380Z,28.77
2019-05-21T00:22:27.648Z,28.92
2019-05-21T00:24:57.910Z,29.00
2019-05-21T00:27:28.185Z,28.95
2019-05-21T00:30:34.968Z,27.98
2019-05-21T00:33:41.431Z,28.32
2019-05-21T00:37:07.740Z,28.07
2019-05-21T00:40:17.415Z,28.67
2019-05-21T00:42:47.667Z,27.45
2019-05-21T00:45:17.964Z,28.70
2019-05-21T00:47:48.753Z,27.37
2019-05-21T00:50:19.017Z,27.62
2019-05-21T00:52:49.337Z,27.82
2019-05-21T00:55:19.599Z,27.30
2019-05-21T00:57:49.883Z,27.07
2019-05-21T01:00:20.195Z,25.43
2019-05-21T01:02:50.420Z,27.37
2019-05-21T01:05:20.673Z,26.87
2019-05-21T01:07:50.965Z,25.95
2019-05-21T01:10:21.259Z,23.87
2019-05-21T01:12:49.896Z,26.10
2019-05-21T01:15:18.481Z,25.60
2019-05-21T01:17:49.284Z,24.43
2019-05-21T01:20:19.496Z,25.45
2019-05-21T01:22:49.724Z,23.67
2019-05-21T01:25:19.976Z,24.72
2019-05-21T01:27:50.660Z,23.77
2019-05-21T01:30:20.989Z,23.70
2019-05-21T01:32:51.254Z,24.43
2019-05-21T01:35:21.532Z,24.37
2019-05-21T01:37:51.962Z,23.60
2019-05-21T01:40:22.225Z,23.40
2019-05-21T01:42:52.513Z,23.10
2019-05-21T01:45:22.653Z,22.10
2019-05-21T01:47:52.985Z,21.73
2019-05-21T01:50:23.267Z,23.07
2019-05-21T01:52:53.491Z,22.62
2019-05-21T01:55:24.387Z,22.27
2019-05-21T01:57:54.575Z,23.05
2019-05-21T02:00:24.800Z,21.87
2019-05-21T02:02:55.127Z,21.87
2019-05-21T02:05:33.184Z,21.45
2019-05-21T02:07:57.434Z,21.12
2019-05-21T02:10:27.730Z,20.52
2019-05-21T02:12:58.238Z,20.00
2019-05-21T02:15:28.475Z,20.50
2019-05-21T02:17:58.727Z,20.95
2019-05-21T02:20:29.020Z,20.05
2019-05-21T02:22:59.407Z,19.52
2019-05-21T02:25:29.635Z,19.80
2019-05-21T02:27:59.993Z,19.92
2019-05-21T02:30:30.317Z,19.00
2019-05-21T02:33:00.633Z,19.80
2019-05-21T02:35:30.961Z,19.67
2019-05-21T02:38:02.193Z,19.37
2019-05-21T02:40:32.345Z,19.25
2019-05-21T02:43:06.836Z,19.27
2019-05-21T02:45:37.156Z,19.00
2019-05-21T02:48:09.294Z,18.85
2019-05-21T02:50:40.153Z,18.15
2019-05-21T02:53:10.476Z,18.67
2019-05-21T02:55:40.669Z,18.37
2019-05-21T02:58:10.854Z,17.92
2019-05-21T03:01:02.783Z,17.87
2019-05-21T03:03:34.000Z,17.10
2019-05-21T03:06:13.830Z,18.55
2019-05-21T03:08:37.217Z,18.02
2019-05-21T03:11:07.477Z,17.60
2019-05-21T03:13:37.835Z,17.00
2019-05-21T03:16:08.412Z,17.20
2019-05-21T03:18:38.637Z,16.65
2019-05-21T03:21:09.017Z,17.12
2019-05-21T03:23:39.310Z,16.67
2019-05-21T03:26:09.556Z,16.15
2019-05-21T03:28:39.817Z,16.85
2019-05-21T03:31:09.994Z,16.50
2019-05-21T03:33:40.330Z,15.88
2019-05-21T03:36:10.515Z,15.30
2019-05-21T03:38:40.833Z,15.58
2019-05-21T03:41:12.106Z,16.35
2019-05-21T03:43:42.406Z,15.83
2019-05-21T03:46:12.652Z,15.78
2019-05-21T03:48:42.903Z,15.43
2019-05-21T03:51:13.191Z,14.87
2019-05-21T03:53:43.444Z,15.55
2019-05-21T03:56:13.705Z,15.32
2019-05-21T03:58:44.020Z,15.80
2019-05-21T04:01:14.378Z,15.05
2019-05-21T04:03:44.623Z,14.75
2019-05-21T04:06:14.858Z,14.80
2019-05-21T04:08:46.164Z,13.90
2019-05-21T04:11:16.388Z,15.05
2019-05-21T04:13:46.587Z,14.65
2019-05-21T04:16:28.928Z,13.70
2019-05-21T04:19:05.723Z,14.10
2019-05-21T04:21:37.079Z,13.05
2019-05-21T04:24:08.954Z,12.88
2019-05-21T04:26:39.316Z,13.15
2019-05-21T04:29:09.745Z,13.40
2019-05-21T04:31:40.039Z,13.10
2019-05-21T04:34:10.740Z,12.37
2019-05-21T04:36:41.084Z,12.47
2019-05-21T04:39:11.289Z,12.45
2019-05-21T04:41:41.528Z,12.00
2019-05-21T04:44:11.698Z,12.13
2019-05-21T04:46:41.963Z,12.75
2019-05-21T04:49:12.693Z,12.88
2019-05-21T04:51:42.863Z,12.23
2019-05-21T04:54:13.110Z,11.70
2019-05-21T04:56:43.361Z,12.23
2019-05-21T04:59:13.617Z,11.95
2019-05-21T05:01:43.943Z,11.55
2019-05-21T05:04:14.227Z,11.95
2019-05-21T05:06:44.560Z,11.73
2019-05-21T05:09:14.713Z,11.93
2019-05-21T05:11:45.027Z,11.63
2019-05-21T05:14:15.311Z,10.98
2019-05-21T05:16:45.572Z,10.72
2019-05-21T05:19:15.901Z,10.88
2019-05-21T05:21:46.130Z,9.43
2019-05-21T05:24:16.495Z,9.53
2019-05-21T05:26:46.764Z,9.33
2019-05-21T05:29:17.051Z,10.20
2019-05-21T05:31:47.295Z,10.40
2019-05-21T05:34:18.552Z,10.70
2019-05-21T05:36:48.878Z,11.55
2019-05-21T05:39:19.201Z,11.55
2019-05-21T05:41:49.482Z,12.40
2019-05-21T05:44:19.637Z,13.08
2019-05-21T05:46:49.932Z,12.33
2019-05-21T05:49:25.278Z,14.43
2019-05-21T05:51:55.581Z,12.45
2019-05-21T05:54:25.784Z,12.53
2019-05-21T05:56:56.132Z,12.05
2019-05-21T05:59:26.434Z,12.75
2019-05-21T06:01:56.951Z,13.18
2019-05-21T06:04:30.427Z,13.53
2019-05-21T06:06:59.081Z,11.40
2019-05-21T06:09:29.623Z,6.37
2019-05-21T06:11:59.839Z,7.80
2019-05-21T06:14:30.237Z,8.73
2019-05-21T06:17:01.462Z,9.68
2019-05-21T06:19:31.811Z,10.00
2019-05-21T06:22:02.215Z,11.00
2019-05-21T06:24:32.479Z,10.70
2019-05-21T06:27:02.696Z,10.30
2019-05-21T06:29:32.956Z,8.93
2019-05-21T06:32:03.130Z,8.00
2019-05-21T06:34:33.464Z,7.37
2019-05-21T06:37:03.838Z,7.03
2019-05-21T06:39:34.022Z,8.20
2019-05-21T06:42:04.525Z,7.10
2019-05-21T06:44:34.785Z,7.70
2019-05-21T06:47:04.947Z,7.30
2019-05-21T06:49:36.308Z,7.40
2019-05-21T06:52:06.641Z,7.97
2019-05-21T06:54:37.024Z,8.10
2019-05-21T06:57:07.295Z,11.18
2019-05-21T06:59:37.693Z,11.30
2019-05-21T07:02:07.955Z,10.32
2019-05-21T07:04:38.185Z,12.80
2019-05-21T07:07:08.484Z,14.55
2019-05-21T07:09:38.872Z,15.98
2019-05-21T07:12:09.148Z,15.00
2019-05-21T07:14:39.380Z,5.90
2019-05-21T07:17:09.877Z,5.90
2019-05-21T07:19:40.227Z,5.28
2019-05-21T07:22:13.076Z,4.05
2019-05-21T07:24:42.543Z,3.10
2019-05-21T07:27:12.735Z,2.72
2019-05-21T07:29:43.937Z,10.93
2019-05-21T07:32:14.230Z,15.50
2019-05-21T07:34:44.573Z,29.42
2019-05-21T07:37:14.882Z,31.17
2019-05-21T07:39:45.253Z,30.68
2019-05-21T07:42:15.526Z,31.20
2019-05-21T07:44:45.812Z,29.48
2019-05-21T07:47:17.600Z,31.33
2019-05-21T07:49:47.955Z,30.15
2019-05-21T07:52:18.453Z,33.10
2019-05-21T07:54:48.721Z,37.67
2019-05-21T07:57:18.978Z,42.53
2019-05-21T07:59:49.303Z,39.15
2019-05-21T08:02:19.538Z,38.75
2019-05-21T08:04:49.798Z,39.00
2019-05-21T08:07:20.181Z,38.70
2019-05-21T08:09:50.518Z,21.27
2019-05-21T08:12:37.283Z,17.37
2019-05-21T08:14:52.734Z,11.20
2019-05-21T08:17:22.967Z,9.70
2019-05-21T08:19:53.300Z,9.55
2019-05-21T08:22:23.547Z,5.92
2019-05-21T08:24:53.915Z,5.10
2019-05-21T08:27:24.162Z,6.97
2019-05-21T08:29:54.323Z,8.58
2019-05-21T08:32:24.671Z,6.87
2019-05-21T08:34:54.957Z,7.87
2019-05-21T08:37:25.143Z,11.80
2019-05-21T08:39:55.800Z,14.05
2019-05-21T08:42:26.054Z,11.83
2019-05-21T08:44:56.306Z,5.70
2019-05-21T08:47:26.572Z,4.05
2019-05-21T08:49:56.930Z,5.25
2019-05-21T08:52:27.265Z,4.58
2019-05-21T08:54:57.632Z,3.08
2019-05-21T08:57:27.902Z,2.83
2019-05-21T08:59:58.269Z,2.35
2019-05-21T09:02:28.503Z,2.47
2019-05-21T09:04:58.858Z,3.02
2019-05-21T09:07:29.249Z,3.65
2019-05-21T09:09:59.625Z,2.33
2019-05-21T09:12:29.969Z,2.02
2019-05-21T09:15:00.189Z,2.40
2019-05-21T09:17:30.539Z,2.30
2019-05-21T09:20:00.809Z,1.90
2019-05-21T09:22:31.351Z,1.55
2019-05-21T09:25:01.767Z,1.80
2019-05-21T09:27:32.192Z,3.12
2019-05-21T09:30:02.544Z,3.22
2019-05-21T09:32:32.844Z,3.00
2019-05-21T09:35:03.288Z,3.55
2019-05-21T09:37:33.541Z,3.30
2019-05-21T09:40:04.448Z,3.15
2019-05-21T09:42:34.827Z,3.20
2019-05-21T09:45:05.440Z,3.15
2019-05-21T09:47:35.952Z,3.30
2019-05-21T09:50:06.825Z,3.22
2019-05-21T09:52:38.120Z,4.33
2019-05-21T09:55:08.708Z,3.42
2019-05-21T09:57:55.275Z,3.62
2019-05-21T10:00:46.924Z,3.42
2019-05-21T10:03:18.905Z,3.37
2019-05-21T10:05:49.201Z,3.25
2019-05-21T10:08:19.577Z,4.42
2019-05-21T10:10:49.858Z,2.92
2019-05-21T10:13:20.173Z,3.12
2019-05-21T10:15:50.553Z,2.40
2019-05-21T10:18:20.771Z,2.67
2019-05-21T10:20:50.997Z,2.50
2019-05-21T10:23:21.841Z,2.67
2019-05-21T10:25:52.117Z,2.15
2019-05-21T10:28:24.117Z,2.40
2019-05-21T10:30:54.425Z,5.30
2019-05-21T10:33:26.480Z,3.85
2019-05-21T10:35:56.706Z,2.70
2019-05-21T10:38:27.007Z,2.00
2019-05-21T10:40:57.218Z,2.25
2019-05-21T10:43:27.883Z,2.30
2019-05-21T10:45:58.210Z,2.62
2019-05-21T10:48:28.601Z,2.10
2019-05-21T10:50:59.000Z,2.17
2019-05-21T10:53:29.253Z,2.95
2019-05-21T10:55:59.510Z,2.60
2019-05-21T10:58:29.854Z,2.35
2019-05-21T11:01:10.205Z,4.40
2019-05-21T11:03:58.442Z,5.60
2019-05-21T11:06:28.746Z,5.20
2019-05-21T11:08:59.022Z,4.00
2019-05-21T11:11:29.302Z,2.22
2019-05-21T11:13:59.652Z,2.25
2019-05-21T11:16:30.051Z,1.90
2019-05-21T11:19:00.316Z,1.90
2019-05-21T11:21:30.669Z,1.85
2019-05-21T11:24:01.083Z,1.50
2019-05-21T11:26:31.720Z,2.22
2019-05-21T11:29:02.208Z,2.52
2019-05-21T11:31:33.451Z,2.62
2019-05-21T11:34:03.876Z,2.60
2019-05-21T11:36:35.056Z,2.40
2019-05-21T11:39:07.397Z,2.58
2019-05-21T11:41:40.509Z,2.30
2019-05-21T11:44:10.915Z,1.92
2019-05-21T11:46:41.521Z,2.10
2019-05-21T11:49:12.418Z,11.83
2019-05-21T11:51:42.840Z,25.40
2019-05-21T11:54:13.345Z,9.88
2019-05-21T11:56:43.744Z,6.28
2019-05-21T11:59:14.232Z,11.63
2019-05-21T12:01:45.246Z,11.63
2019-05-21T12:04:15.887Z,6.03
2019-05-21T12:06:46.173Z,4.03
2019-05-21T12:09:17.197Z,4.60
2019-05-21T12:11:47.611Z,6.03
2019-05-21T12:14:18.740Z,6.53
2019-05-21T12:16:49.354Z,4.33
2019-05-21T12:19:20.133Z,2.83
2019-05-21T12:21:50.954Z,2.52
2019-05-21T12:24:21.589Z,2.17
2019-05-21T12:26:52.070Z,5.55
2019-05-21T12:29:22.469Z,4.90
2019-05-21T12:31:52.719Z,4.55
2019-05-21T12:34:21.817Z,4.78
2019-05-21T12:36:50.395Z,4.50
2019-05-21T12:39:19.380Z,3.80
2019-05-21T12:41:47.937Z,3.37
2019-05-21T12:44:20.933Z,3.92
2019-05-21T12:46:51.471Z,3.25
2019-05-21T12:49:21.732Z,3.35
2019-05-21T12:51:52.317Z,3.40
2019-05-21T12:54:22.617Z,3.00
2019-05-21T12:56:54.270Z,2.77
2019-05-21T12:59:24.977Z,2.87
2019-05-21T13:01:55.791Z,2.95
2019-05-21T13:04:26.152Z,2.70
2019-05-21T13:06:56.419Z,2.00
2019-05-21T13:09:32.694Z,1.87
2019-05-21T13:11:58.949Z,2.02
2019-05-21T13:14:29.234Z,1.62
2019-05-21T13:16:59.396Z,2.10
2019-05-21T13:19:30.526Z,2.40
2019-05-21T13:22:01.367Z,2.00
2019-05-21T13:24:31.681Z,1.80
2019-05-21T13:27:02.013Z,1.90
2019-05-21T13:29:33.756Z,1.67
2019-05-21T13:32:04.062Z,1.87
2019-05-21T13:34:34.312Z,1.42
2019-05-21T13:37:04.527Z,1.17
2019-05-21T13:39:48.782Z,0.95
2019-05-21T13:42:08.231Z,1.00
2019-05-21T13:44:38.569Z,1.15
2019-05-21T13:47:08.781Z,1.60
2019-05-21T13:49:39.420Z,1.35
2019-05-21T13:52:10.163Z,1.20
2019-05-21T13:54:42.137Z,1.22
2019-05-21T13:57:12.627Z,1.85
2019-05-21T13:59:43.496Z,1.60
2019-05-21T14:02:14.410Z,1.40
2019-05-21T14:04:45.238Z,1.00
2019-05-21T14:07:17.080Z,0.70
2019-05-21T14:09:47.668Z,0.88
2019-05-21T14:12:18.841Z,0.95
2019-05-21T14:14:50.214Z,9.23
2019-05-21T14:17:21.119Z,10.23
2019-05-21T14:19:51.834Z,8.03
2019-05-21T14:22:22.581Z,6.42
2019-05-21T14:24:52.811Z,4.40
2019-05-21T14:27:24.248Z,4.10
2019-05-21T14:29:56.223Z,3.02
2019-05-21T14:32:35.303Z,2.33
2019-05-21T14:35:06.699Z,1.85
2019-05-21T14:37:37.056Z,2.37
2019-05-21T14:40:08.433Z,2.22
2019-05-21T14:42:38.920Z,2.90
2019-05-21T14:45:10.405Z,3.80
2019-05-21T14:47:41.524Z,2.90
2019-05-21T14:50:11.863Z,3.90
2019-05-21T14:52:42.473Z,5.37
2019-05-21T14:55:13.456Z,4.83
2019-05-21T14:57:44.246Z,4.20
2019-05-21T15:00:23.618Z,3.25
2019-05-21T15:02:54.101Z,2.90
2019-05-21T15:05:24.982Z,2.65
2019-05-21T15:07:55.295Z,2.60
2019-05-21T15:10:25.673Z,2.00
2019-05-21T15:12:56.015Z,1.85
2019-05-21T15:15:32.493Z,2.10
2019-05-21T15:18:02.779Z,1.47
2019-05-21T15:20:52.218Z,1.90
2019-05-21T15:23:24.506Z,2.60
2019-05-21T15:25:56.436Z,9.88
2019-05-21T15:28:27.677Z,16.52
2019-05-21T15:30:58.695Z,19.02
2019-05-21T15:33:30.298Z,21.17
2019-05-21T15:36:00.656Z,17.35
2019-05-21T15:38:48.459Z,18.67
2019-05-21T15:41:10.479Z,13.58
2019-05-21T15:43:36.112Z,12.35
2019-05-21T15:46:27.329Z,10.48
2019-05-21T15:48:57.654Z,10.20
2019-05-21T15:51:27.815Z,9.83
2019-05-21T15:53:58.067Z,10.13
2019-05-21T15:56:28.800Z,9.58
2019-05-21T15:58:59.054Z,8.48
2019-05-21T16:01:30.517Z,9.30
2019-05-21T16:04:00.748Z,8.73
2019-05-21T16:06:31.026Z,8.50
2019-05-21T16:09:01.242Z,7.95
2019-05-21T16:11:32.798Z,9.00
2019-05-21T16:14:03.324Z,8.58
2019-05-21T16:16:33.667Z,8.05
2019-05-21T16:19:03.988Z,8.65
2019-05-21T16:21:34.278Z,7.80
2019-05-21T16:24:04.559Z,8.23
2019-05-21T16:26:35.302Z,7.85
2019-05-21T16:29:07.030Z,8.30
2019-05-21T16:31:37.681Z,8.03
2019-05-21T16:34:08.138Z,7.22
2019-05-21T16:36:38.466Z,7.33
2019-05-21T16:39:09.199Z,7.92
2019-05-21T16:41:44.857Z,7.50
2019-05-21T16:44:11.720Z,7.10
2019-05-21T16:46:42.788Z,7.45
2019-05-21T16:49:13.995Z,7.08
2019-05-21T16:51:44.798Z,7.05
2019-05-21T16:54:15.751Z,7.25
2019-05-21T16:56:46.350Z,7.17
2019-05-21T16:59:17.169Z,6.53
2019-05-21T17:01:47.413Z,7.30
2019-05-21T17:04:17.787Z,7.70
2019-05-21T17:06:48.218Z,6.97
2019-05-21T17:09:19.096Z,7.05
2019-05-21T17:11:59.381Z,6.78
2019-05-21T17:14:23.054Z,6.65
2019-05-21T17:16:53.813Z,6.67
2019-05-21T17:19:24.149Z,6.62
2019-05-21T17:21:54.362Z,6.95
2019-05-21T17:24:25.710Z,6.65
2019-05-21T17:26:56.202Z,6.92
2019-05-21T17:29:26.482Z,6.50
2019-05-21T17:31:56.955Z,6.25
2019-05-21T17:34:27.208Z,6.42
2019-05-21T17:36:57.576Z,6.28
2019-05-21T17:39:27.924Z,6.25
2019-05-21T17:41:58.285Z,6.08
2019-05-21T17:44:29.465Z,6.00
2019-05-21T17:46:59.754Z,6.87
2019-05-21T17:49:29.972Z,6.08
2019-05-21T17:52:01.272Z,6.33
2019-05-21T17:54:31.556Z,6.28
2019-05-21T17:57:01.784Z,6.65
2019-05-21T17:59:32.188Z,5.78
2019-05-21T18:02:04.130Z,6.45
2019-05-21T18:04:34.662Z,6.25
2019-05-21T18:07:05.910Z,6.33
2019-05-21T18:09:37.174Z,6.50
2019-05-21T18:12:08.693Z,6.40
2019-05-21T18:14:39.515Z,6.55
2019-05-21T18:17:13.637Z,6.17
2019-05-21T18:19:44.327Z,6.45
2019-05-21T18:22:18.334Z,5.97
2019-05-21T18:24:49.756Z,5.75
2019-05-21T18:27:20.285Z,5.80
2019-05-21T18:29:50.628Z,6.35
2019-05-21T18:32:20.781Z,6.42
2019-05-21T18:34:52.016Z,6.10
2019-05-21T18:37:22.722Z,5.50
2019-05-21T18:39:53.082Z,6.15
2019-05-21T18:42:23.408Z,5.75
2019-05-21T18:44:53.804Z,5.80
2019-05-21T18:47:24.182Z,5.92
2019-05-21T18:49:54.439Z,5.45
2019-05-21T18:52:24.891Z,5.80
2019-05-21T18:54:56.187Z,5.28
2019-05-21T18:57:26.473Z,5.67
2019-05-21T18:59:56.758Z,5.90
2019-05-21T19:02:27.151Z,5.53
2019-05-21T19:04:57.749Z,5.50
2019-05-21T19:07:28.129Z,5.30
2019-05-21T19:10:00.907Z,5.42
2019-05-21T19:12:37.970Z,6.00
2019-05-21T19:15:03.258Z,5.42
2019-05-21T19:17:35.879Z,5.47
2019-05-21T19:20:09.755Z,5.10
2019-05-21T19:22:40.151Z,5.45
2019-05-21T19:25:10.699Z,5.05
2019-05-21T19:27:41.214Z,5.30
2019-05-21T19:30:11.737Z,5.10
2019-05-21T19:32:42.298Z,5.12
2019-05-21T19:35:12.976Z,5.12
2019-05-21T19:37:43.554Z,4.92
2019-05-21T19:40:13.839Z,4.55
2019-05-21T19:42:54.254Z,4.80
2019-05-21T19:45:18.876Z,4.90
2019-05-21T19:47:49.259Z,5.10
2019-05-21T19:50:19.471Z,4.80
2019-05-21T19:52:50.063Z,5.17
2019-05-21T19:55:20.369Z,5.30
2019-05-21T19:57:51.686Z,8.38
2019-05-21T20:00:21.987Z,8.38
2019-05-21T20:03:01.044Z,8.00
2019-05-21T20:05:31.436Z,8.40
2019-05-21T20:08:01.857Z,7.80
2019-05-21T20:10:34.267Z,7.72
2019-05-21T20:13:04.988Z,6.85
2019-05-21T20:15:35.623Z,6.53
2019-05-21T20:18:07.709Z,6.10
2019-05-21T20:20:41.873Z,7.95
2019-05-21T20:23:13.877Z,6.92
2019-05-21T20:25:56.000Z,9.68
2019-05-21T20:28:17.339Z,9.85
2019-05-21T20:30:48.857Z,9.70
2019-05-21T20:33:19.160Z,13.03
2019-05-21T20:35:49.700Z,13.93
2019-05-21T20:38:20.276Z,15.83
2019-05-21T20:40:50.668Z,14.80
2019-05-21T20:43:21.248Z,13.88
2019-05-21T20:45:51.838Z,16.42
2019-05-21T20:48:26.299Z,17.17
2019-05-21T20:50:56.696Z,20.62
2019-05-21T20:53:27.301Z,16.35
2019-05-21T20:55:57.892Z,16.23
2019-05-21T20:58:28.440Z,15.85
2019-05-21T21:01:07.690Z,17.62
2019-05-21T21:03:39.774Z,16.45
2019-05-21T21:06:10.899Z,16.42
2019-05-21T21:08:41.211Z,16.62
2019-05-21T21:11:13.378Z,17.00
2019-05-21T21:13:44.580Z,15.90
2019-05-21T21:16:15.061Z,15.28
2019-05-21T21:18:46.115Z,15.83
2019-05-21T21:21:16.761Z,15.28
2019-05-21T21:23:49.108Z,17.30
2019-05-21T21:26:19.502Z,22.60
2019-05-21T21:28:49.777Z,20.00
2019-05-21T21:31:20.242Z,18.90
2019-05-21T21:33:50.587Z,25.95
2019-05-21T21:36:21.232Z,27.60
2019-05-21T21:38:51.396Z,43.98
2019-05-21T21:41:21.813Z,53.23
2019-05-21T21:43:52.483Z,70.42
2019-05-21T21:46:22.818Z,69.80
2019-05-21T21:48:53.134Z,73.47
2019-05-21T21:51:36.979Z,63.63
2019-05-21T21:54:36.090Z,61.83
2019-05-21T21:57:21.701Z,58.55
2019-05-21T21:59:58.712Z,53.83
2019-05-21T22:02:39.315Z,52.93
2019-05-21T22:05:18.142Z,52.20
2019-05-21T22:07:58.623Z,52.38
2019-05-21T22:10:30.531Z,50.92
2019-05-21T22:13:26.994Z,50.20
2019-05-21T22:16:00.155Z,51.05
2019-05-21T22:18:30.565Z,51.15
2019-05-21T22:21:01.344Z,50.38
2019-05-21T22:23:31.740Z,51.55
2019-05-21T22:26:02.853Z,50.25
2019-05-21T22:28:33.206Z,50.55
2019-05-21T22:31:03.710Z,50.38
2019-05-21T22:33:34.233Z,49.18
2019-05-21T22:36:04.823Z,49.75
2019-05-21T22:38:35.180Z,49.93
2019-05-21T22:41:05.553Z,49.08
2019-05-21T22:43:35.867Z,50.10
2019-05-21T22:46:06.075Z,49.45
2019-05-21T22:48:37.476Z,50.73
2019-05-21T22:51:08.909Z,49.33
2019-05-21T22:53:39.843Z,50.08
2019-05-21T22:56:10.125Z,49.27
2019-05-21T22:58:41.492Z,49.18
2019-05-21T23:01:12.446Z,49.75
2019-05-21T23:03:42.806Z,49.53
2019-05-21T23:06:13.163Z,49.13
2019-05-21T23:08:45.064Z,48.28
2019-05-21T23:11:16.425Z,47.43
2019-05-21T23:13:46.691Z,48.33
2019-05-21T23:16:17.635Z,48.78
2019-05-21T23:18:56.625Z,47.35
2019-05-21T23:21:40.457Z,47.95
2019-05-21T23:24:17.071Z,48.15
2019-05-21T23:26:47.674Z,48.02
2019-05-21T23:29:19.026Z,48.90
2019-05-21T23:31:49.290Z,48.58
2019-05-21T23:34:19.511Z,48.52
2019-05-21T23:36:51.643Z,46.30
2019-05-21T23:39:25.589Z,46.02
2019-05-21T23:41:56.114Z,48.13
2019-05-21T23:44:26.880Z,46.00
2019-05-21T23:46:57.412Z,47.08
2019-05-21T23:49:27.620Z,47.60
2019-05-21T23:51:57.882Z,46.37
2019-05-21T23:54:28.307Z,47.27
2019-05-21T23:56:59.425Z,47.03
2019-05-21T23:59:29.773Z,47.43
